sensor_id;sensor_type;location;lat;lon;timestamp;pressure;altitude;pressure_sealevel;temperature;humidity
57600;BME280;43426;43.594;24.334;2023-08-24T00:00:11;100966.84;;;22.21;83.67
57600;BME280;43426;43.594;24.334;2023-08-24T00:02:36;100969.97;;;22.13;84.50
57600;BME280;43426;43.594;24.334;2023-08-24T00:05:03;100952.31;;;22.09;84.28
57600;BME280;43426;43.594;24.334;2023-08-24T00:07:29;100941.09;;;21.99;84.29
57600;BME280;43426;43.594;24.334;2023-08-24T00:09:54;100943.63;;;22.00;84.33
57600;BME280;43426;43.594;24.334;2023-08-24T00:12:20;100968.16;;;22.19;85.08
57600;BME280;43426;43.594;24.334;2023-08-24T00:14:45;100939.53;;;22.03;85.81
57600;BME280;43426;43.594;24.334;2023-08-24T00:17:10;100960.16;;;22.17;85.88
57600;BME280;43426;43.594;24.334;2023-08-24T00:19:36;100943.94;;;22.04;85.15
57600;BME280;43426;43.594;24.334;2023-08-24T00:22:01;100967.59;;;22.17;85.08
57600;BME280;43426;43.594;24.334;2023-08-24T00:24:27;100927.84;;;21.96;85.09
57600;BME280;43426;43.594;24.334;2023-08-24T00:26:52;100950.75;;;22.13;84.68
57600;BME280;43426;43.594;24.334;2023-08-24T00:29:17;100950.06;;;22.06;85.45
57600;BME280;43426;43.594;24.334;2023-08-24T00:31:43;100950.31;;;21.92;86.45
57600;BME280;43426;43.594;24.334;2023-08-24T00:34:08;100943.50;;;21.95;85.76
57600;BME280;43426;43.594;24.334;2023-08-24T00:36:34;100946.97;;;21.90;86.01
57600;BME280;43426;43.594;24.334;2023-08-24T00:38:59;100921.06;;;21.74;86.08
57600;BME280;43426;43.594;24.334;2023-08-24T00:41:26;100917.25;;;21.75;85.68
57600;BME280;43426;43.594;24.334;2023-08-24T00:43:51;100944.69;;;21.87;86.20
57600;BME280;43426;43.594;24.334;2023-08-24T00:46:17;100915.38;;;21.52;86.78
57600;BME280;43426;43.594;24.334;2023-08-24T00:48:43;100927.06;;;21.59;86.72
57600;BME280;43426;43.594;24.334;2023-08-24T00:51:09;100947.94;;;21.84;87.13
57600;BME280;43426;43.594;24.334;2023-08-24T00:53:35;100947.94;;;21.84;86.49
57600;BME280;43426;43.594;24.334;2023-08-24T00:56:02;100948.41;;;21.81;85.33
57600;BME280;43426;43.594;24.334;2023-08-24T00:58:28;100957.03;;;21.73;85.33
57600;BME280;43426;43.594;24.334;2023-08-24T01:00:55;100946.16;;;21.66;85.42
57600;BME280;43426;43.594;24.334;2023-08-24T01:03:22;100952.50;;;21.55;86.03
57600;BME280;43426;43.594;24.334;2023-08-24T01:05:48;100945.56;;;21.52;86.92
57600;BME280;43426;43.594;24.334;2023-08-24T01:08:14;100911.88;;;21.33;86.91
57600;BME280;43426;43.594;24.334;2023-08-24T01:11:11;100949.88;;;21.60;86.64
57600;BME280;43426;43.594;24.334;2023-08-24T01:16:25;100946.97;;;21.43;86.60
57600;BME280;43426;43.594;24.334;2023-08-24T01:18:55;100932.31;;;21.25;86.95
57600;BME280;43426;43.594;24.334;2023-08-24T01:21:21;100931.56;;;21.18;86.22
57600;BME280;43426;43.594;24.334;2023-08-24T01:24:17;100958.69;;;21.38;86.27
57600;BME280;43426;43.594;24.334;2023-08-24T01:26:44;100952.94;;;21.28;85.97
57600;BME280;43426;43.594;24.334;2023-08-24T01:29:12;100932.75;;;21.22;85.81
57600;BME280;43426;43.594;24.334;2023-08-24T01:31:37;100930.72;;;21.18;85.95
57600;BME280;43426;43.594;24.334;2023-08-24T01:34:03;100948.53;;;21.27;86.28
57600;BME280;43426;43.594;24.334;2023-08-24T01:36:28;100931.44;;;21.13;85.91
57600;BME280;43426;43.594;24.334;2023-08-24T01:39:11;100934.78;;;21.15;85.58
57600;BME280;43426;43.594;24.334;2023-08-24T01:44:09;100963.31;;;21.26;85.24
57600;BME280;43426;43.594;24.334;2023-08-24T01:46:37;100954.72;;;21.11;85.96
57600;BME280;43426;43.594;24.334;2023-08-24T01:49:05;100967.22;;;21.18;87.20
57600;BME280;43426;43.594;24.334;2023-08-24T01:51:33;100940.38;;;21.08;87.22
57600;BME280;43426;43.594;24.334;2023-08-24T01:54:00;100952.69;;;21.06;87.23
57600;BME280;43426;43.594;24.334;2023-08-24T01:56:26;100990.53;;;21.16;88.67
57600;BME280;43426;43.594;24.334;2023-08-24T01:58:51;100980.84;;;21.13;89.19
57600;BME280;43426;43.594;24.334;2023-08-24T02:01:17;100973.44;;;21.14;88.54
57600;BME280;43426;43.594;24.334;2023-08-24T02:03:42;100992.06;;;21.12;89.42
57600;BME280;43426;43.594;24.334;2023-08-24T02:06:08;100981.31;;;21.10;90.14
57600;BME280;43426;43.594;24.334;2023-08-24T02:08:34;100955.38;;;20.94;90.35
57600;BME280;43426;43.594;24.334;2023-08-24T02:10:59;100951.94;;;20.99;90.01
57600;BME280;43426;43.594;24.334;2023-08-24T02:15:50;100944.50;;;20.87;90.31
57600;BME280;43426;43.594;24.334;2023-08-24T02:18:15;100911.81;;;20.74;89.25
57600;BME280;43426;43.594;24.334;2023-08-24T02:20:41;100930.66;;;20.70;89.92
57600;BME280;43426;43.594;24.334;2023-08-24T02:23:06;100948.31;;;20.74;90.11
57600;BME280;43426;43.594;24.334;2023-08-24T02:25:32;100931.75;;;20.81;90.17
57600;BME280;43426;43.594;24.334;2023-08-24T02:27:58;100937.25;;;20.81;89.56
57600;BME280;43426;43.594;24.334;2023-08-24T02:30:24;100970.59;;;20.78;91.33
57600;BME280;43426;43.594;24.334;2023-08-24T02:32:50;100968.56;;;20.73;92.07
57600;BME280;43426;43.594;24.334;2023-08-24T02:35:16;100960.06;;;20.94;90.87
57600;BME280;43426;43.594;24.334;2023-08-24T02:37:41;100927.28;;;20.68;91.10
57600;BME280;43426;43.594;24.334;2023-08-24T02:40:07;100922.72;;;20.62;91.44
57600;BME280;43426;43.594;24.334;2023-08-24T02:42:34;100968.50;;;20.92;90.73
57600;BME280;43426;43.594;24.334;2023-08-24T02:44:59;100964.78;;;20.86;91.06
57600;BME280;43426;43.594;24.334;2023-08-24T02:47:25;100961.13;;;20.92;90.90
57600;BME280;43426;43.594;24.334;2023-08-24T02:49:50;100958.84;;;20.89;90.69
57600;BME280;43426;43.594;24.334;2023-08-24T02:52:17;100960.16;;;20.87;91.06
57600;BME280;43426;43.594;24.334;2023-08-24T02:54:42;100935.81;;;20.79;90.77
57600;BME280;43426;43.594;24.334;2023-08-24T02:57:07;100945.72;;;20.80;90.33
57600;BME280;43426;43.594;24.334;2023-08-24T02:59:33;100958.84;;;20.89;89.56
57600;BME280;43426;43.594;24.334;2023-08-24T03:01:58;100947.59;;;20.79;89.70
57600;BME280;43426;43.594;24.334;2023-08-24T03:04:24;100950.34;;;20.79;90.16
57600;BME280;43426;43.594;24.334;2023-08-24T03:06:49;100953.56;;;20.76;90.41
57600;BME280;43426;43.594;24.334;2023-08-24T03:09:15;100962.09;;;20.68;90.13
57600;BME280;43426;43.594;24.334;2023-08-24T03:11:41;100937.09;;;20.46;91.29
57600;BME280;43426;43.594;24.334;2023-08-24T03:14:06;100941.50;;;20.47;91.47
57600;BME280;43426;43.594;24.334;2023-08-24T03:16:31;100957.97;;;20.58;91.47
57600;BME280;43426;43.594;24.334;2023-08-24T03:18:57;100952.59;;;20.52;90.78
57600;BME280;43426;43.594;24.334;2023-08-24T03:21:23;100978.94;;;20.53;90.80
57600;BME280;43426;43.594;24.334;2023-08-24T03:23:49;100944.81;;;20.18;91.27
57600;BME280;43426;43.594;24.334;2023-08-24T03:26:14;100961.25;;;20.18;92.24
57600;BME280;43426;43.594;24.334;2023-08-24T03:28:41;100984.22;;;20.36;92.15
57600;BME280;43426;43.594;24.334;2023-08-24T03:31:07;100952.22;;;20.18;92.35
57600;BME280;43426;43.594;24.334;2023-08-24T03:33:32;100987.28;;;20.28;92.70
57600;BME280;43426;43.594;24.334;2023-08-24T03:35:59;100969.47;;;20.18;92.60
57600;BME280;43426;43.594;24.334;2023-08-24T03:38:25;100984.94;;;20.31;92.04
57600;BME280;43426;43.594;24.334;2023-08-24T03:40:50;100988.41;;;20.20;92.83
57600;BME280;43426;43.594;24.334;2023-08-24T03:43:16;101013.75;;;20.34;93.49
57600;BME280;43426;43.594;24.334;2023-08-24T03:45:44;100996.66;;;20.38;93.26
57600;BME280;43426;43.594;24.334;2023-08-24T03:48:09;101002.47;;;20.42;92.64
57600;BME280;43426;43.594;24.334;2023-08-24T03:50:35;101013.38;;;20.49;92.65
57600;BME280;43426;43.594;24.334;2023-08-24T03:53:00;101012.59;;;20.60;90.79
57600;BME280;43426;43.594;24.334;2023-08-24T03:55:26;100979.25;;;20.45;90.79
57600;BME280;43426;43.594;24.334;2023-08-24T03:57:51;101009.47;;;20.56;91.59
57600;BME280;43426;43.594;24.334;2023-08-24T04:00:17;101017.88;;;20.62;91.77
57600;BME280;43426;43.594;24.334;2023-08-24T04:02:43;101007.34;;;20.58;91.70
57600;BME280;43426;43.594;24.334;2023-08-24T04:05:08;101010.09;;;20.77;91.30
57600;BME280;43426;43.594;24.334;2023-08-24T04:07:34;101013.31;;;20.86;90.96
57600;BME280;43426;43.594;24.334;2023-08-24T04:10:02;101008.81;;;20.91;89.64
57600;BME280;43426;43.594;24.334;2023-08-24T04:12:30;101013.38;;;20.98;90.05
57600;BME280;43426;43.594;24.334;2023-08-24T04:14:56;100995.09;;;20.91;89.84
57600;BME280;43426;43.594;24.334;2023-08-24T04:17:23;101013.41;;;21.09;90.44
57600;BME280;43426;43.594;24.334;2023-08-24T04:19:51;100969.19;;;20.87;90.52
57600;BME280;43426;43.594;24.334;2023-08-24T04:22:17;101002.06;;;21.06;89.98
57600;BME280;43426;43.594;24.334;2023-08-24T04:24:43;101028.38;;;21.37;89.06
57600;BME280;43426;43.594;24.334;2023-08-24T04:27:08;101026.72;;;21.48;87.47
57600;BME280;43426;43.594;24.334;2023-08-24T04:29:34;101035.69;;;21.55;87.30
57600;BME280;43426;43.594;24.334;2023-08-24T04:31:59;101039.91;;;21.70;87.33
57600;BME280;43426;43.594;24.334;2023-08-24T04:34:25;101015.44;;;21.68;85.96
57600;BME280;43426;43.594;24.334;2023-08-24T04:36:51;101001.91;;;21.67;86.09
57600;BME280;43426;43.594;24.334;2023-08-24T04:39:17;101037.38;;;22.16;85.18
57600;BME280;43426;43.594;24.334;2023-08-24T04:41:44;101041.91;;;22.22;84.60
57600;BME280;43426;43.594;24.334;2023-08-24T04:44:10;100993.03;;;22.12;84.50
57600;BME280;43426;43.594;24.334;2023-08-24T04:46:35;101027.97;;;22.64;82.79
57600;BME280;43426;43.594;24.334;2023-08-24T04:49:01;101034.13;;;22.83;82.00
57600;BME280;43426;43.594;24.334;2023-08-24T04:51:26;101023.19;;;22.88;81.16
57600;BME280;43426;43.594;24.334;2023-08-24T04:53:53;101030.06;;;23.03;80.96
57600;BME280;43426;43.594;24.334;2023-08-24T04:56:19;101021.31;;;23.06;80.73
57600;BME280;43426;43.594;24.334;2023-08-24T04:58:57;101042.91;;;23.43;78.73
57600;BME280;43426;43.594;24.334;2023-08-24T05:01:23;101036.78;;;23.58;77.57
57600;BME280;43426;43.594;24.334;2023-08-24T05:03:51;101040.97;;;23.60;77.60
57600;BME280;43426;43.594;24.334;2023-08-24T05:06:17;101042.97;;;23.65;77.54
57600;BME280;43426;43.594;24.334;2023-08-24T05:08:42;101022.28;;;23.45;77.72
57600;BME280;43426;43.594;24.334;2023-08-24T05:11:18;101037.72;;;23.63;77.50
57600;BME280;43426;43.594;24.334;2023-08-24T05:13:45;101044.22;;;23.57;78.51
57600;BME280;43426;43.594;24.334;2023-08-24T05:16:12;101041.72;;;23.73;77.84
57600;BME280;43426;43.594;24.334;2023-08-24T05:18:38;101023.75;;;23.87;77.03
57600;BME280;43426;43.594;24.334;2023-08-24T05:21:04;101047.94;;;24.19;75.35
57600;BME280;43426;43.594;24.334;2023-08-24T05:23:33;101023.56;;;24.11;75.78
57600;BME280;43426;43.594;24.334;2023-08-24T05:26:00;101038.75;;;24.13;75.16
57600;BME280;43426;43.594;24.334;2023-08-24T05:28:26;101050.38;;;24.38;74.70
57600;BME280;43426;43.594;24.334;2023-08-24T05:30:52;101053.13;;;24.38;74.35
57600;BME280;43426;43.594;24.334;2023-08-24T05:33:19;101046.94;;;24.70;73.25
57600;BME280;43426;43.594;24.334;2023-08-24T05:35:45;101039.72;;;24.69;72.94
57600;BME280;43426;43.594;24.334;2023-08-24T05:38:10;101039.97;;;24.62;73.51
57600;BME280;43426;43.594;24.334;2023-08-24T05:40:36;101019.84;;;24.67;72.86
57600;BME280;43426;43.594;24.334;2023-08-24T05:43:03;101015.66;;;24.86;72.33
57600;BME280;43426;43.594;24.334;2023-08-24T05:45:28;101008.41;;;24.80;72.19
57600;BME280;43426;43.594;24.334;2023-08-24T05:47:54;101039.44;;;25.20;71.58
57600;BME280;43426;43.594;24.334;2023-08-24T05:50:19;101046.31;;;25.44;70.35
57600;BME280;43426;43.594;24.334;2023-08-24T05:52:45;101040.91;;;25.60;69.59
57600;BME280;43426;43.594;24.334;2023-08-24T05:55:10;101020.78;;;25.64;68.96
57600;BME280;43426;43.594;24.334;2023-08-24T05:57:35;101036.47;;;25.96;68.27
57600;BME280;43426;43.594;24.334;2023-08-24T06:00:01;101015.16;;;25.97;68.43
57600;BME280;43426;43.594;24.334;2023-08-24T06:02:27;101028.06;;;26.29;66.64
57600;BME280;43426;43.594;24.334;2023-08-24T06:04:52;101043.59;;;26.35;66.80
57600;BME280;43426;43.594;24.334;2023-08-24T06:07:17;101025.59;;;26.27;66.22
57600;BME280;43426;43.594;24.334;2023-08-24T06:09:43;101027.03;;;26.45;65.73
57600;BME280;43426;43.594;24.334;2023-08-24T06:12:09;101016.63;;;26.73;64.01
57600;BME280;43426;43.594;24.334;2023-08-24T06:14:35;101000.56;;;26.70;63.77
57600;BME280;43426;43.594;24.334;2023-08-24T06:17:00;101034.97;;;27.05;63.42
57600;BME280;43426;43.594;24.334;2023-08-24T06:19:26;101016.97;;;27.28;62.08
57600;BME280;43426;43.594;24.334;2023-08-24T06:21:51;100998.44;;;27.24;62.27
57600;BME280;43426;43.594;24.334;2023-08-24T06:24:16;101033.09;;;27.62;61.14
57600;BME280;43426;43.594;24.334;2023-08-24T06:26:42;101036.66;;;27.89;60.71
57600;BME280;43426;43.594;24.334;2023-08-24T06:29:07;101015.84;;;28.01;59.64
57600;BME280;43426;43.594;24.334;2023-08-24T06:31:35;101038.84;;;28.12;59.26
57600;BME280;43426;43.594;24.334;2023-08-24T06:34:00;101026.00;;;28.22;59.33
57600;BME280;43426;43.594;24.334;2023-08-24T06:36:26;101029.50;;;28.53;57.35
57600;BME280;43426;43.594;24.334;2023-08-24T06:38:51;101045.56;;;28.61;56.99
57600;BME280;43426;43.594;24.334;2023-08-24T06:41:16;101038.38;;;28.55;57.63
57600;BME280;43426;43.594;24.334;2023-08-24T06:43:42;101032.22;;;28.68;58.51
57600;BME280;43426;43.594;24.334;2023-08-24T06:46:07;101015.13;;;28.96;57.37
57600;BME280;43426;43.594;24.334;2023-08-24T06:48:34;101020.75;;;29.20;55.70
57600;BME280;43426;43.594;24.334;2023-08-24T06:50:59;101018.31;;;29.48;55.06
57600;BME280;43426;43.594;24.334;2023-08-24T06:53:25;101021.50;;;29.65;55.03
57600;BME280;43426;43.594;24.334;2023-08-24T06:55:55;101004.34;;;29.87;54.02
57600;BME280;43426;43.594;24.334;2023-08-24T06:58:21;101024.50;;;30.22;52.41
57600;BME280;43426;43.594;24.334;2023-08-24T07:00:46;101041.09;;;30.57;51.49
57600;BME280;43426;43.594;24.334;2023-08-24T07:03:11;101035.84;;;30.74;50.94
57600;BME280;43426;43.594;24.334;2023-08-24T07:05:37;101014.38;;;30.75;51.60
57600;BME280;43426;43.594;24.334;2023-08-24T07:08:02;101034.66;;;31.19;49.49
57600;BME280;43426;43.594;24.334;2023-08-24T07:10:28;101018.69;;;31.05;50.83
57600;BME280;43426;43.594;24.334;2023-08-24T07:12:54;101036.28;;;31.39;49.12
57600;BME280;43426;43.594;24.334;2023-08-24T07:15:19;101017.84;;;31.57;48.35
57600;BME280;43426;43.594;24.334;2023-08-24T07:17:45;101024.72;;;31.79;48.34
57600;BME280;43426;43.594;24.334;2023-08-24T07:20:11;101027.19;;;32.08;46.54
57600;BME280;43426;43.594;24.334;2023-08-24T07:22:39;101032.81;;;32.22;46.25
57600;BME280;43426;43.594;24.334;2023-08-24T07:25:05;101039.88;;;32.19;46.38
57600;BME280;43426;43.594;24.334;2023-08-24T07:27:32;101024.03;;;32.15;47.31
57600;BME280;43426;43.594;24.334;2023-08-24T07:29:58;101034.34;;;32.56;45.42
57600;BME280;43426;43.594;24.334;2023-08-24T07:32:25;101030.72;;;32.55;46.18
57600;BME280;43426;43.594;24.334;2023-08-24T07:34:51;101031.81;;;32.68;45.63
57600;BME280;43426;43.594;24.334;2023-08-24T07:37:16;101034.81;;;32.86;45.56
57600;BME280;43426;43.594;24.334;2023-08-24T07:39:42;101012.59;;;33.03;45.36
57600;BME280;43426;43.594;24.334;2023-08-24T07:42:07;101034.03;;;33.31;44.40
57600;BME280;43426;43.594;24.334;2023-08-24T07:44:33;101017.66;;;33.47;44.45
57600;BME280;43426;43.594;24.334;2023-08-24T07:46:58;101009.25;;;33.69;42.50
57600;BME280;43426;43.594;24.334;2023-08-24T07:49:24;101007.13;;;33.75;41.99
57600;BME280;43426;43.594;24.334;2023-08-24T07:51:49;101022.72;;;33.99;43.94
57600;BME280;43426;43.594;24.334;2023-08-24T07:54:14;101014.97;;;34.44;42.04
57600;BME280;43426;43.594;24.334;2023-08-24T07:56:40;101013.34;;;34.70;40.44
57600;BME280;43426;43.594;24.334;2023-08-24T07:59:05;101010.88;;;34.51;41.44
57600;BME280;43426;43.594;24.334;2023-08-24T08:01:31;101010.25;;;34.71;41.05
57600;BME280;43426;43.594;24.334;2023-08-24T08:03:56;101006.31;;;34.81;41.60
57600;BME280;43426;43.594;24.334;2023-08-24T08:06:22;100973.63;;;34.68;40.26
57600;BME280;43426;43.594;24.334;2023-08-24T08:08:50;100987.97;;;34.66;40.61
57600;BME280;43426;43.594;24.334;2023-08-24T08:11:17;101004.31;;;34.90;39.99
57600;BME280;43426;43.594;24.334;2023-08-24T08:13:42;100998.72;;;34.90;40.95
57600;BME280;43426;43.594;24.334;2023-08-24T08:16:08;100985.00;;;35.06;40.65
57600;BME280;43426;43.594;24.334;2023-08-24T08:18:35;101002.44;;;35.56;39.71
57600;BME280;43426;43.594;24.334;2023-08-24T08:21:01;101008.94;;;35.77;38.53
57600;BME280;43426;43.594;24.334;2023-08-24T08:23:28;101007.94;;;35.91;37.85
57600;BME280;43426;43.594;24.334;2023-08-24T08:25:54;100986.81;;;35.85;37.99
57600;BME280;43426;43.594;24.334;2023-08-24T08:28:19;101000.81;;;35.93;37.50
57600;BME280;43426;43.594;24.334;2023-08-24T08:30:46;101001.44;;;35.99;37.57
57600;BME280;43426;43.594;24.334;2023-08-24T08:33:13;100996.81;;;36.03;38.17
57600;BME280;43426;43.594;24.334;2023-08-24T08:35:38;100996.69;;;36.21;37.67
57600;BME280;43426;43.594;24.334;2023-08-24T08:38:05;100995.72;;;36.46;37.63
57600;BME280;43426;43.594;24.334;2023-08-24T08:40:36;100992.84;;;36.55;36.14
57600;BME280;43426;43.594;24.334;2023-08-24T08:43:02;100970.50;;;36.59;36.96
57600;BME280;43426;43.594;24.334;2023-08-24T08:45:28;100963.09;;;36.75;35.62
57600;BME280;43426;43.594;24.334;2023-08-24T08:48:01;100966.38;;;36.77;35.40
57600;BME280;43426;43.594;24.334;2023-08-24T08:50:29;100965.09;;;36.96;35.68
57600;BME280;43426;43.594;24.334;2023-08-24T08:52:55;100982.00;;;36.87;36.34
57600;BME280;43426;43.594;24.334;2023-08-24T08:55:21;100974.28;;;37.18;35.07
57600;BME280;43426;43.594;24.334;2023-08-24T08:57:48;100985.66;;;37.21;34.73
57600;BME280;43426;43.594;24.334;2023-08-24T09:00:15;100978.13;;;36.79;35.00
57600;BME280;43426;43.594;24.334;2023-08-24T09:02:45;100963.06;;;36.96;35.37
57600;BME280;43426;43.594;24.334;2023-08-24T09:05:14;100973.31;;;37.35;34.28
57600;BME280;43426;43.594;24.334;2023-08-24T09:07:40;100974.97;;;37.60;34.44
57600;BME280;43426;43.594;24.334;2023-08-24T09:10:06;100963.50;;;37.65;33.44
57600;BME280;43426;43.594;24.334;2023-08-24T09:12:33;100945.63;;;37.37;34.27
57600;BME280;43426;43.594;24.334;2023-08-24T09:14:59;100966.44;;;37.69;34.53
57600;BME280;43426;43.594;24.334;2023-08-24T09:17:24;100957.75;;;37.99;34.11
57600;BME280;43426;43.594;24.334;2023-08-24T09:19:55;100963.25;;;38.20;32.38
57600;BME280;43426;43.594;24.334;2023-08-24T09:22:22;100954.78;;;38.32;32.85
57600;BME280;43426;43.594;24.334;2023-08-24T09:24:48;100947.78;;;38.55;31.58
57600;BME280;43426;43.594;24.334;2023-08-24T09:27:19;100955.47;;;38.42;31.36
57600;BME280;43426;43.594;24.334;2023-08-24T09:29:52;100958.63;;;38.53;32.11
57600;BME280;43426;43.594;24.334;2023-08-24T09:32:31;100944.44;;;38.37;31.80
57600;BME280;43426;43.594;24.334;2023-08-24T09:35:20;100952.94;;;38.65;31.62
57600;BME280;43426;43.594;24.334;2023-08-24T09:37:49;100941.78;;;38.28;31.21
57600;BME280;43426;43.594;24.334;2023-08-24T09:40:15;100946.03;;;38.09;32.47
57600;BME280;43426;43.594;24.334;2023-08-24T09:42:43;100946.50;;;38.52;31.86
57600;BME280;43426;43.594;24.334;2023-08-24T09:45:13;100946.56;;;38.80;30.15
57600;BME280;43426;43.594;24.334;2023-08-24T09:47:39;100951.69;;;38.50;31.38
57600;BME280;43426;43.594;24.334;2023-08-24T09:50:05;100941.94;;;38.47;30.55
57600;BME280;43426;43.594;24.334;2023-08-24T09:52:34;100946.81;;;38.35;31.38
57600;BME280;43426;43.594;24.334;2023-08-24T09:55:03;100913.41;;;38.49;31.10
57600;BME280;43426;43.594;24.334;2023-08-24T09:57:39;100913.53;;;38.81;31.46
57600;BME280;43426;43.594;24.334;2023-08-24T10:00:09;100935.84;;;39.30;30.03
57600;BME280;43426;43.594;24.334;2023-08-24T10:02:52;100923.75;;;39.30;30.54
57600;BME280;43426;43.594;24.334;2023-08-24T10:05:23;100911.44;;;39.38;30.01
57600;BME280;43426;43.594;24.334;2023-08-24T10:07:53;100920.63;;;39.67;30.04
57600;BME280;43426;43.594;24.334;2023-08-24T10:10:20;100902.31;;;39.45;29.66
57600;BME280;43426;43.594;24.334;2023-08-24T10:12:50;100914.63;;;39.53;30.44
57600;BME280;43426;43.594;24.334;2023-08-24T10:15:17;100893.97;;;39.64;29.11
57600;BME280;43426;43.594;24.334;2023-08-24T10:17:44;100903.75;;;39.87;29.48
57600;BME280;43426;43.594;24.334;2023-08-24T10:20:10;100887.50;;;39.99;29.14
57600;BME280;43426;43.594;24.334;2023-08-24T10:22:37;100909.88;;;40.24;28.97
57600;BME280;43426;43.594;24.334;2023-08-24T10:25:04;100901.00;;;40.26;29.11
57600;BME280;43426;43.594;24.334;2023-08-24T10:27:30;100902.38;;;40.51;28.61
57600;BME280;43426;43.594;24.334;2023-08-24T10:29:56;100890.75;;;40.01;28.36
57600;BME280;43426;43.594;24.334;2023-08-24T10:32:25;100877.22;;;39.91;28.88
57600;BME280;43426;43.594;24.334;2023-08-24T10:34:52;100878.81;;;39.41;29.08
57600;BME280;43426;43.594;24.334;2023-08-24T10:37:25;100883.81;;;39.47;28.62
57600;BME280;43426;43.594;24.334;2023-08-24T10:39:50;100870.16;;;39.33;29.91
57600;BME280;43426;43.594;24.334;2023-08-24T10:42:16;100869.28;;;39.81;29.59
57600;BME280;43426;43.594;24.334;2023-08-24T10:44:45;100857.84;;;39.58;28.16
57600;BME280;43426;43.594;24.334;2023-08-24T10:47:12;100867.22;;;39.78;28.55
57600;BME280;43426;43.594;24.334;2023-08-24T10:49:39;100859.78;;;39.89;28.70
57600;BME280;43426;43.594;24.334;2023-08-24T10:52:19;100838.91;;;39.94;29.49
57600;BME280;43426;43.594;24.334;2023-08-24T10:54:46;100854.44;;;40.39;28.57
57600;BME280;43426;43.594;24.334;2023-08-24T10:57:26;100855.78;;;40.26;28.96
57600;BME280;43426;43.594;24.334;2023-08-24T11:00:04;100848.34;;;40.17;28.77
57600;BME280;43426;43.594;24.334;2023-08-24T11:02:48;100825.81;;;39.86;28.24
57600;BME280;43426;43.594;24.334;2023-08-24T11:05:28;100835.47;;;39.84;29.52
57600;BME280;43426;43.594;24.334;2023-08-24T11:08:02;100830.75;;;40.28;29.70
57600;BME280;43426;43.594;24.334;2023-08-24T11:10:36;100834.22;;;40.80;28.32
57600;BME280;43426;43.594;24.334;2023-08-24T11:13:18;100815.94;;;40.97;28.10
57600;BME280;43426;43.594;24.334;2023-08-24T11:15:48;100826.94;;;41.25;27.84
57600;BME280;43426;43.594;24.334;2023-08-24T11:18:23;100817.56;;;41.21;26.94
57600;BME280;43426;43.594;24.334;2023-08-24T11:21:06;100818.44;;;41.02;26.18
57600;BME280;43426;43.594;24.334;2023-08-24T11:23:32;100790.50;;;40.77;27.44
57600;BME280;43426;43.594;24.334;2023-08-24T11:25:59;100785.75;;;41.05;26.91
57600;BME280;43426;43.594;24.334;2023-08-24T11:28:26;100770.22;;;41.22;26.06
57600;BME280;43426;43.594;24.334;2023-08-24T11:30:53;100769.47;;;40.98;26.26
57600;BME280;43426;43.594;24.334;2023-08-24T11:33:34;100789.34;;;41.01;26.27
57600;BME280;43426;43.594;24.334;2023-08-24T11:36:03;100773.94;;;40.99;26.99
57600;BME280;43426;43.594;24.334;2023-08-24T11:38:39;100771.59;;;41.31;27.38
57600;BME280;43426;43.594;24.334;2023-08-24T11:41:15;100782.88;;;41.55;25.77
57600;BME280;43426;43.594;24.334;2023-08-24T11:43:46;100755.09;;;41.37;25.82
57600;BME280;43426;43.594;24.334;2023-08-24T11:46:14;100771.97;;;41.57;26.31
57600;BME280;43426;43.594;24.334;2023-08-24T11:48:40;100771.78;;;41.73;25.60
57600;BME280;43426;43.594;24.334;2023-08-24T11:51:13;100757.53;;;41.65;25.07
57600;BME280;43426;43.594;24.334;2023-08-24T11:53:42;100748.34;;;41.76;25.27
57600;BME280;43426;43.594;24.334;2023-08-24T11:56:09;100744.97;;;41.97;24.99
57600;BME280;43426;43.594;24.334;2023-08-24T11:58:40;100748.91;;;41.85;24.88
57600;BME280;43426;43.594;24.334;2023-08-24T12:01:08;100749.38;;;41.91;25.07
57600;BME280;43426;43.594;24.334;2023-08-24T12:03:34;100741.06;;;42.09;24.91
57600;BME280;43426;43.594;24.334;2023-08-24T12:06:01;100742.91;;;41.94;24.76
57600;BME280;43426;43.594;24.334;2023-08-24T12:08:29;100749.09;;;42.03;24.32
57600;BME280;43426;43.594;24.334;2023-08-24T12:10:54;100741.28;;;41.62;24.09
57600;BME280;43426;43.594;24.334;2023-08-24T12:13:20;100731.16;;;41.34;24.68
57600;BME280;43426;43.594;24.334;2023-08-24T12:15:46;100742.44;;;41.58;23.56
57600;BME280;43426;43.594;24.334;2023-08-24T12:18:13;100736.41;;;41.32;23.81
57600;BME280;43426;43.594;24.334;2023-08-24T12:20:40;100737.63;;;41.62;22.43
57600;BME280;43426;43.594;24.334;2023-08-24T12:23:06;100716.47;;;41.82;22.81
57600;BME280;43426;43.594;24.334;2023-08-24T12:25:42;100722.63;;;42.26;22.41
57600;BME280;43426;43.594;24.334;2023-08-24T12:28:15;100733.19;;;42.29;21.75
57600;BME280;43426;43.594;24.334;2023-08-24T12:30:52;100722.94;;;42.17;21.44
57600;BME280;43426;43.594;24.334;2023-08-24T12:35:47;100704.25;;;42.12;19.88
57600;BME280;43426;43.594;24.334;2023-08-24T12:38:13;100725.34;;;41.50;20.19
57600;BME280;43426;43.594;24.334;2023-08-24T12:40:38;100726.22;;;41.01;21.14
57600;BME280;43426;43.594;24.334;2023-08-24T12:43:04;100722.28;;;41.06;20.49
57600;BME280;43426;43.594;24.334;2023-08-24T12:45:31;100732.22;;;41.23;20.62
57600;BME280;43426;43.594;24.334;2023-08-24T12:47:56;100690.31;;;41.05;21.58
57600;BME280;43426;43.594;24.334;2023-08-24T12:50:22;100725.66;;;41.42;20.93